createdAt,value
2017-04-17T00:02:09.372Z,76.69
2017-04-17T00:02:58.882Z,76.69
2017-04-17T00:03:43.104Z,76.98
2017-04-17T00:04:24.525Z,77.36
2017-04-17T00:06:16.222Z,77.17
2017-04-17T00:07:01.660Z,76.98
2017-04-17T00:07:44.814Z,76.5
2017-04-17T00:08:25.318Z,76.79
2017-04-17T00:09:06.834Z,76.79
2017-04-17T00:09:47.412Z,76.79
2017-04-17T00:10:29.253Z,76.79
2017-04-17T00:11:10.765Z,76.69
2017-04-17T00:11:55.235Z,76.4
2017-04-17T00:12:36.112Z,76.59
2017-04-17T00:13:20.689Z,76.59
2017-04-17T00:14:02.263Z,76.69
2017-04-17T00:14:42.868Z,76.79
2017-04-17T00:15:24.706Z,76.69
2017-04-17T00:16:05.169Z,76.5
2017-04-17T00:16:47.485Z,76.5
2017-04-17T00:17:30.299Z,76.88
2017-04-17T00:18:10.765Z,76.59
2017-04-17T00:18:53.159Z,76.98
2017-04-17T00:19:34.293Z,76.79
2017-04-17T00:20:14.821Z,76.98
2017-04-17T00:20:55.858Z,76.59
2017-04-17T00:21:39.318Z,76.98
2017-04-17T00:22:23.067Z,76.59
2017-04-17T00:23:03.607Z,77.17
2017-04-17T00:23:44.383Z,77.26
2017-04-17T00:24:24.835Z,77.45
2017-04-17T00:25:09.755Z,77.36
2017-04-17T00:26:13.940Z,78.03
2017-04-17T00:29:13.749Z,77.93
2017-04-17T00:29:56.888Z,77.8
2017-04-17T00:30:37.405Z,77.74
2017-04-17T00:31:17.952Z,77.93
2017-04-17T00:32:05.814Z,78.12
2017-04-17T00:32:46.315Z,77.93
2017-04-17T00:33:37.356Z,78.12
2017-04-17T00:35:33.481Z,78.12
2017-04-17T00:36:23.494Z,78.27
2017-04-17T00:37:14.662Z,77.93
2017-04-17T00:37:57.675Z,77.83
2017-04-17T00:38:38.162Z,77.93
2017-04-17T00:39:18.660Z,77.83
2017-04-17T00:39:59.175Z,77.83
2017-04-17T00:40:39.664Z,77.93
2017-04-17T00:41:20.201Z,78.03
2017-04-17T00:42:00.695Z,78.03
2017-04-17T00:42:41.280Z,78.03
2017-04-17T00:43:21.715Z,77.83
2017-04-17T00:44:47.651Z,77.83
2017-04-17T00:45:47.880Z,77.93
2017-04-17T00:47:55.343Z,77.36
2017-04-17T00:48:38.183Z,76.98
2017-04-17T00:49:19.145Z,76.69
2017-04-17T00:49:59.605Z,76.88
2017-04-17T00:50:40.113Z,77.07
2017-04-17T00:51:20.586Z,76.69
2017-04-17T00:52:01.086Z,76.5
2017-04-17T00:52:41.602Z,76.69
2017-04-17T00:53:22.072Z,76.59
2017-04-17T00:54:02.620Z,76.59
2017-04-17T00:54:43.140Z,76.5
2017-04-17T00:55:23.643Z,76.21
2017-04-17T00:56:04.131Z,76.21
2017-04-17T00:56:44.615Z,76.5
2017-04-17T00:57:25.124Z,75.87
2017-04-17T00:58:05.615Z,75.45
2017-04-17T00:58:46.155Z,75.84
2017-04-17T00:59:26.654Z,76.21
2017-04-17T01:00:07.134Z,75.45
2017-04-17T01:00:47.613Z,75.74
2017-04-17T01:01:28.125Z,75.74
2017-04-17T01:02:08.674Z,75.45
2017-04-17T01:02:49.121Z,75.45
2017-04-17T01:03:29.650Z,76.03
2017-04-17T01:04:10.221Z,76.69
2017-04-17T01:04:50.699Z,76.69
2017-04-17T01:05:31.180Z,76.4
2017-04-17T01:06:11.685Z,76.79
2017-04-17T01:06:52.174Z,76.79
2017-04-17T01:07:32.662Z,76.5
2017-04-17T01:08:13.190Z,76.59
2017-04-17T01:08:53.695Z,76.31
2017-04-17T01:09:34.171Z,76.88
2017-04-17T01:10:14.661Z,76.98
2017-04-17T01:10:55.150Z,76.79
2017-04-17T01:11:35.681Z,76.54
2017-04-17T01:12:16.205Z,76.54
2017-04-17T01:12:56.667Z,76.73
2017-04-17T01:13:37.227Z,76.92
2017-04-17T01:14:17.722Z,76.82
2017-04-17T01:14:58.167Z,76.82
2017-04-17T01:15:38.684Z,77.01
2017-04-17T01:16:19.159Z,76.92
2017-04-17T01:16:59.676Z,76.82
2017-04-17T01:17:40.206Z,77.01
2017-04-17T01:18:20.680Z,76.82
2017-04-17T01:19:01.139Z,76.54
2017-04-17T01:19:41.627Z,76.54
2017-04-17T01:20:22.114Z,76.82
2017-04-17T01:21:02.592Z,77.11
2017-04-17T01:21:43.075Z,77.69
2017-04-17T01:22:23.603Z,77.69
2017-04-17T01:23:04.081Z,77.64
2017-04-17T01:23:44.528Z,77.93
2017-04-17T01:24:25.048Z,77.93
2017-04-17T01:25:05.566Z,78.31
2017-04-17T01:25:46.019Z,78.5
2017-04-17T01:26:26.553Z,78.5
2017-04-17T01:27:08.121Z,78.5
2017-04-17T01:27:48.724Z,78.5
2017-04-17T01:30:07.049Z,78.31
2017-04-17T01:31:00.454Z,78.88
2017-04-17T01:31:50.005Z,78.88
2017-04-17T01:33:37.294Z,79.83
2017-04-17T01:34:20.506Z,79.64
2017-04-17T01:35:00.995Z,79.46
2017-04-17T01:35:41.524Z,79.36
2017-04-17T01:36:21.963Z,79.83
2017-04-17T01:37:04.179Z,79.83
2017-04-17T01:37:44.529Z,80.02
2017-04-17T01:38:25.134Z,80.41
2017-04-17T01:39:05.611Z,80.69
2017-04-17T01:39:46.080Z,80.08
2017-04-17T01:40:26.559Z,80.5
2017-04-17T01:41:07.005Z,80.5
2017-04-17T01:41:49.855Z,81.07
2017-04-17T01:42:30.108Z,80.69
2017-04-17T01:43:10.600Z,80.6
2017-04-17T01:43:51.127Z,81.03
2017-04-17T01:44:31.606Z,81.07
2017-04-17T01:45:12.063Z,81.13
2017-04-17T01:45:52.570Z,80.69
2017-04-17T01:46:33.060Z,80.6
2017-04-17T01:47:14.629Z,81.26
2017-04-17T01:47:55.165Z,80.79
2017-04-17T01:48:35.616Z,80.6
2017-04-17T01:49:16.136Z,80.69
2017-04-17T01:49:56.663Z,80.12
2017-04-17T01:50:37.123Z,80.5
2017-04-17T01:51:19.511Z,80.98
2017-04-17T01:52:00.751Z,80.98
2017-04-17T01:52:41.233Z,81.26
2017-04-17T01:53:21.746Z,81.36
2017-04-17T01:54:02.257Z,80.69
2017-04-17T01:54:42.709Z,80.41
2017-04-17T01:55:26.162Z,80.31
2017-04-17T01:58:58.291Z,80.12
2017-04-17T01:59:40.794Z,80.41
2017-04-17T02:00:21.223Z,80.6
2017-04-17T02:01:01.715Z,80.5
2017-04-17T02:01:42.200Z,80.41
2017-04-17T02:02:22.735Z,80.6
2017-04-17T02:03:05.163Z,80.5
2017-04-17T02:03:45.638Z,80.6
2017-04-17T02:04:26.126Z,80.12
2017-04-17T02:05:06.586Z,80.31
2017-04-17T02:05:47.077Z,80.31
2017-04-17T02:06:27.603Z,80.22
2017-04-17T02:07:09.105Z,79.93
2017-04-17T02:07:50.329Z,80.5
2017-04-17T02:08:30.802Z,80.5
2017-04-17T02:09:11.328Z,80.65
2017-04-17T02:09:51.799Z,80.69
2017-04-17T02:10:32.290Z,81.23
2017-04-17T02:11:12.754Z,80.75
2017-04-17T02:11:53.918Z,80.94
2017-04-17T02:12:35.191Z,80.94
2017-04-17T02:13:15.746Z,81.03
2017-04-17T02:13:56.452Z,81.03
2017-04-17T02:14:36.944Z,81.13
2017-04-17T02:15:17.476Z,81.03
2017-04-17T02:15:57.949Z,80.94
2017-04-17T02:16:40.887Z,80.94
2017-04-17T02:17:21.371Z,80.84
2017-04-17T02:18:01.880Z,81.51
2017-04-17T02:18:42.335Z,81.32
2017-04-17T02:19:22.855Z,81.51
2017-04-17T02:20:05.159Z,81.6
2017-04-17T02:20:45.791Z,81.7
2017-04-17T02:21:26.315Z,81.79
2017-04-17T02:22:06.760Z,82.08
2017-04-17T02:22:47.262Z,81.7
2017-04-17T02:23:27.726Z,81.79
2017-04-17T02:24:08.180Z,81.74
2017-04-17T02:24:51.622Z,82.41
2017-04-17T02:25:32.139Z,81.55
2017-04-17T02:26:12.613Z,81.74
2017-04-17T02:26:53.189Z,80.88
2017-04-17T02:27:34.374Z,81.36
2017-04-17T02:28:16.170Z,81.17
2017-04-17T02:28:56.613Z,81.07
2017-04-17T02:29:37.077Z,81.07
2017-04-17T02:30:17.529Z,81.26
2017-04-17T02:30:57.971Z,80.65
2017-04-17T02:31:38.457Z,80.98
2017-04-17T02:32:20.871Z,81.13
2017-04-17T02:33:01.347Z,80.94
2017-04-17T02:33:41.837Z,81.23
2017-04-17T02:34:22.330Z,81.07
2017-04-17T02:35:02.842Z,80.88
2017-04-17T02:35:43.325Z,80.98
2017-04-17T02:36:23.840Z,81.26
2017-04-17T02:37:04.367Z,80.88
2017-04-17T02:37:44.826Z,81.07
2017-04-17T02:38:25.413Z,81.17
2017-04-17T02:39:05.951Z,81.07
2017-04-17T02:39:46.458Z,80.5
2017-04-17T02:40:26.959Z,80.79
2017-04-17T02:41:07.427Z,80.6
2017-04-17T02:41:47.873Z,80.41
2017-04-17T02:42:28.371Z,80.31
2017-04-17T02:43:08.844Z,80.79
2017-04-17T02:43:49.355Z,80.22
2017-04-17T02:44:29.844Z,80.12
2017-04-17T02:45:10.336Z,80.79
2017-04-17T02:45:50.838Z,80.5
2017-04-17T02:46:31.345Z,80.41
2017-04-17T02:47:11.789Z,80.65
2017-04-17T02:47:52.306Z,81.13
2017-04-17T02:48:32.794Z,80.98
2017-04-17T02:49:13.255Z,81.03
2017-04-17T02:49:53.754Z,81.03
2017-04-17T02:50:34.205Z,81.13
2017-04-17T02:51:14.728Z,81.03
2017-04-17T02:51:55.184Z,81.17
2017-04-17T02:52:35.728Z,81.36
2017-04-17T02:53:16.179Z,80.5
2017-04-17T02:53:56.639Z,80.69
2017-04-17T02:54:37.141Z,80.31
2017-04-17T02:55:17.629Z,79.74
2017-04-17T02:55:58.097Z,80.31
2017-04-17T02:56:38.599Z,80.6
2017-04-17T02:57:19.072Z,80.5
2017-04-17T02:57:59.521Z,80.31
2017-04-17T02:58:40.041Z,80.5
2017-04-17T02:59:20.529Z,80.69
2017-04-17T03:00:01.074Z,80.18
2017-04-17T03:00:41.592Z,80.75
2017-04-17T03:01:22.227Z,81.32
2017-04-17T03:02:02.667Z,80.55
2017-04-17T03:02:43.184Z,80.65
2017-04-17T03:03:23.636Z,80.55
2017-04-17T03:04:04.122Z,80.6
2017-04-17T03:04:44.636Z,80.22
2017-04-17T03:05:25.184Z,80.5
2017-04-17T03:06:05.625Z,80.31
2017-04-17T03:06:46.083Z,80.31
2017-04-17T03:07:26.558Z,80.41
2017-04-17T03:08:07.072Z,80.31
2017-04-17T03:08:47.539Z,80.22
2017-04-17T03:09:28.045Z,80.6
2017-04-17T03:10:08.524Z,80.31
2017-04-17T03:10:48.993Z,80.27
2017-04-17T03:11:29.468Z,80.65
2017-04-17T03:12:10.017Z,81.41
2017-04-17T03:12:50.489Z,81.13
2017-04-17T03:13:31.022Z,80.94
2017-04-17T03:14:11.461Z,81.03
2017-04-17T03:14:52.149Z,80.94
2017-04-17T03:15:32.612Z,81.6
2017-04-17T03:16:13.157Z,81.32
2017-04-17T03:16:53.633Z,81.32
2017-04-17T03:17:34.071Z,80.94
2017-04-17T03:18:14.588Z,80.94
2017-04-17T03:18:55.057Z,81.23
2017-04-17T03:19:35.572Z,80.84
2017-04-17T03:20:16.088Z,81.79
2017-04-17T03:20:56.580Z,81.6
2017-04-17T03:21:37.066Z,81.13
2017-04-17T03:22:17.765Z,81.23
2017-04-17T03:22:58.209Z,80.94
2017-04-17T03:23:38.724Z,80.84
2017-04-17T03:24:19.264Z,80.84
2017-04-17T03:24:59.730Z,81.13
2017-04-17T03:25:40.213Z,80.84
2017-04-17T03:26:20.701Z,81.6
2017-04-17T03:27:01.173Z,80.75
2017-04-17T03:27:41.669Z,81.23
2017-04-17T03:28:22.167Z,81.03
2017-04-17T03:29:02.666Z,80.84
2017-04-17T03:29:43.167Z,81.23
2017-04-17T03:30:23.626Z,80.94
2017-04-17T03:31:04.123Z,81.51
2017-04-17T03:31:44.632Z,80.94
2017-04-17T03:32:25.127Z,81.03
2017-04-17T03:33:05.674Z,80.94
2017-04-17T03:33:46.120Z,81.13
2017-04-17T03:34:26.628Z,81.23
2017-04-17T03:35:07.125Z,80.46
2017-04-17T03:35:47.622Z,80.55
2017-04-17T03:36:28.071Z,80.36
2017-04-17T03:37:08.601Z,80.65
2017-04-17T03:37:49.067Z,80.36
2017-04-17T03:38:29.521Z,80.94
2017-04-17T03:39:10.062Z,80.08
2017-04-17T03:39:50.520Z,80.27
2017-04-17T03:40:31.019Z,80.55
2017-04-17T03:41:11.523Z,80.18
2017-04-17T03:41:51.973Z,80.46
2017-04-17T03:42:32.470Z,79.99
2017-04-17T03:43:12.999Z,80.08
2017-04-17T03:43:53.470Z,80.36
2017-04-17T03:44:33.928Z,80.46
2017-04-17T03:45:14.409Z,80.36
2017-04-17T03:45:54.914Z,80.08
2017-04-17T03:46:35.408Z,79.7
2017-04-17T03:47:15.899Z,79.8
2017-04-17T03:47:56.443Z,79.27
2017-04-17T03:48:36.941Z,78.98
2017-04-17T03:49:17.377Z,78.46
2017-04-17T03:49:57.903Z,78.78
2017-04-17T03:50:38.362Z,78.98
2017-04-17T03:51:18.838Z,78.59
2017-04-17T03:51:59.407Z,78.78
2017-04-17T03:52:39.912Z,78.98
2017-04-17T03:53:20.386Z,78.31
2017-04-17T03:54:00.887Z,78.22
2017-04-17T03:54:41.373Z,78.31
2017-04-17T03:55:21.819Z,78.08
2017-04-17T03:56:02.338Z,78.08
2017-04-17T03:56:42.814Z,78.27
2017-04-17T03:57:23.324Z,78.56
2017-04-17T03:58:03.761Z,78.69
2017-04-17T03:58:44.296Z,78.27
2017-04-17T03:59:24.847Z,78.27
2017-04-17T04:00:05.300Z,78.08
2017-04-17T04:00:45.839Z,78.75
2017-04-17T04:01:26.284Z,79.22
2017-04-17T04:02:06.792Z,79.22
2017-04-17T04:02:47.273Z,79.22
2017-04-17T04:03:27.719Z,78.65
2017-04-17T04:04:08.264Z,78.37
2017-04-17T04:04:48.695Z,78.85
2017-04-17T04:05:29.191Z,78.65
2017-04-17T04:06:09.716Z,78.17
2017-04-17T04:06:50.172Z,78.08
2017-04-17T04:07:30.646Z,78.46
2017-04-17T04:08:11.147Z,78.46
2017-04-17T04:08:51.662Z,77.8
2017-04-17T04:09:32.138Z,78.17
2017-04-17T04:10:12.557Z,78.17
2017-04-17T04:10:53.099Z,77.98
2017-04-17T04:11:33.583Z,78.27
2017-04-17T04:12:14.100Z,78.08
2017-04-17T04:12:54.561Z,77.98
2017-04-17T04:13:35.139Z,77.61
2017-04-17T04:14:15.599Z,77.89
2017-04-17T04:14:56.156Z,78.17
2017-04-17T04:15:36.608Z,77.98
2017-04-17T04:16:17.044Z,77.93
2017-04-17T04:16:57.521Z,78.08
2017-04-17T04:17:38.006Z,77.98
2017-04-17T04:18:18.549Z,78.08
2017-04-17T04:18:58.993Z,78.08
2017-04-17T04:19:39.600Z,77.98
2017-04-17T04:20:20.103Z,77.98
2017-04-17T04:21:00.567Z,77.8
2017-04-17T04:21:41.047Z,77.89
2017-04-17T04:22:21.578Z,77.89
2017-04-17T04:23:02.007Z,77.98
2017-04-17T04:23:42.539Z,77.89
2017-04-17T04:24:23.068Z,77.98
2017-04-17T04:25:03.542Z,77.89
2017-04-17T04:25:44.136Z,77.61
2017-04-17T04:26:24.613Z,78.65
2017-04-17T04:27:05.063Z,78.46
2017-04-17T04:27:45.581Z,78.17
2017-04-17T04:28:26.054Z,78.27
2017-04-17T04:29:06.550Z,78.75
2017-04-17T04:29:47.013Z,78.17
2017-04-17T04:30:27.532Z,78.08
2017-04-17T04:31:08.004Z,77.8
2017-04-17T04:31:48.666Z,78.08
2017-04-17T04:32:29.125Z,77.64
2017-04-17T04:33:09.562Z,77.7
2017-04-17T04:33:50.056Z,77.89
2017-04-17T04:34:30.598Z,77.89
2017-04-17T04:35:11.063Z,77.32
2017-04-17T04:35:51.561Z,77.89
2017-04-17T04:36:32.040Z,77.89
2017-04-17T04:37:12.512Z,78.27
2017-04-17T04:37:52.994Z,77.51
2017-04-17T04:38:33.518Z,77.32
2017-04-17T04:39:13.958Z,77.32
2017-04-17T04:39:54.470Z,77.7
2017-04-17T04:40:34.929Z,77.51
2017-04-17T04:41:15.522Z,77.61
2017-04-17T04:41:55.971Z,77.32
2017-04-17T04:42:36.486Z,77.98
2017-04-17T04:43:16.968Z,78.08
2017-04-17T04:43:57.469Z,77.42
2017-04-17T04:44:37.950Z,77.89
2017-04-17T04:45:18.430Z,77.42
2017-04-17T04:45:59.000Z,77.61
2017-04-17T04:46:39.481Z,77.7
2017-04-17T04:47:19.932Z,77.8
2017-04-17T04:48:00.493Z,77.7
2017-04-17T04:48:40.952Z,77.51
2017-04-17T04:49:21.454Z,77.7
2017-04-17T04:50:01.939Z,77.13
2017-04-17T04:50:42.362Z,77.32
2017-04-17T04:51:22.872Z,76.84
2017-04-17T04:52:03.392Z,76.94
2017-04-17T04:52:43.833Z,77.61
2017-04-17T04:53:24.373Z,77.42
2017-04-17T04:54:04.879Z,77.89
2017-04-17T04:54:45.348Z,77.03
2017-04-17T04:55:25.837Z,77.32
2017-04-17T04:56:06.357Z,77.64
2017-04-17T04:56:46.768Z,76.69
2017-04-17T04:57:27.262Z,76.65
2017-04-17T04:58:07.811Z,76.75
2017-04-17T04:58:48.253Z,76.46
2017-04-17T04:59:28.785Z,77.32
2017-04-17T05:00:09.283Z,77.36
2017-04-17T05:00:49.792Z,77.45
2017-04-17T05:01:30.273Z,77.45
2017-04-17T05:02:10.742Z,76.88
2017-04-17T05:02:51.319Z,76.79
2017-04-17T05:03:31.797Z,76.98
2017-04-17T05:04:12.311Z,76.79
2017-04-17T05:04:52.829Z,76.79
2017-04-17T05:05:33.346Z,77.13
2017-04-17T05:06:13.818Z,77.8
2017-04-17T05:06:55.934Z,77.22
2017-04-17T05:07:37.371Z,77.98
2017-04-17T05:08:17.922Z,78.08
2017-04-17T05:08:58.375Z,78.17
2017-04-17T05:09:38.894Z,77.45
2017-04-17T05:10:21.004Z,77.61
2017-04-17T05:11:01.979Z,77.98
2017-04-17T05:11:42.490Z,77.7
2017-04-17T05:12:22.981Z,77.74
2017-04-17T05:13:03.437Z,77.7
2017-04-17T05:13:43.955Z,77.32
2017-04-17T05:14:27.070Z,77.36
2017-04-17T05:15:07.596Z,77.03
2017-04-17T05:15:48.051Z,77.32
2017-04-17T05:16:28.556Z,77.42
2017-04-17T05:17:09.070Z,77.61
2017-04-17T05:19:26.213Z,77.45
2017-04-17T05:20:19.795Z,76.88
2017-04-17T05:21:09.337Z,76.59
2017-04-17T05:21:57.316Z,76.94
2017-04-17T05:22:45.703Z,77.03
2017-04-17T05:23:36.979Z,76.94
2017-04-17T05:24:20.298Z,77.51
2017-04-17T05:25:01.331Z,77.42
2017-04-17T05:25:43.419Z,77.7
2017-04-17T05:26:23.925Z,77.42
2017-04-17T05:27:04.435Z,78.08
2017-04-17T05:27:46.206Z,78.08
2017-04-17T05:28:26.683Z,78.17
2017-04-17T05:29:07.185Z,78.37
2017-04-17T05:29:47.703Z,78.27
2017-04-17T05:30:28.182Z,77.7
2017-04-17T05:31:08.727Z,77.8
2017-04-17T05:31:49.260Z,77.89
2017-04-17T05:32:31.670Z,78.12
2017-04-17T05:33:12.135Z,77.89
2017-04-17T05:33:52.648Z,78.08
2017-04-17T05:34:34.672Z,78.37
2017-04-17T05:35:16.576Z,78.37
2017-04-17T05:35:57.073Z,78.37
2017-04-17T05:36:37.540Z,78.27
2017-04-17T05:37:19.294Z,78.27
2017-04-17T05:37:59.730Z,78.85
2017-04-17T05:38:41.780Z,78.65
2017-04-17T05:39:24.260Z,78.37
2017-04-17T05:40:04.658Z,78.08
2017-04-17T05:40:46.916Z,78.27
2017-04-17T05:41:28.401Z,78.46
2017-04-17T05:42:08.908Z,77.93
2017-04-17T05:42:51.267Z,77.89
2017-04-17T05:43:31.764Z,78.27
2017-04-17T05:44:12.202Z,78.65
2017-04-17T05:44:53.542Z,78.27
2017-04-17T05:45:34.016Z,78.27
2017-04-17T05:46:15.822Z,78.17
2017-04-17T05:46:56.277Z,78.08
2017-04-17T05:47:36.797Z,78.17
2017-04-17T05:48:17.268Z,78.75
2017-04-17T05:48:57.741Z,78.94
2017-04-17T05:49:39.146Z,78.56
2017-04-17T05:50:20.897Z,78.46
2017-04-17T05:51:01.356Z,78.88
2017-04-17T05:51:42.790Z,78.41
2017-04-17T05:52:23.245Z,77.93
2017-04-17T05:53:03.721Z,78.22
2017-04-17T05:53:44.877Z,77.64
2017-04-17T05:54:26.120Z,77.83
2017-04-17T05:55:06.789Z,78.12
2017-04-17T05:55:47.089Z,78.03
2017-04-17T05:56:27.571Z,78.17
2017-04-17T05:57:08.068Z,78.69
2017-04-17T05:57:48.524Z,78.65
2017-04-17T05:58:33.237Z,78.08
2017-04-17T05:59:13.718Z,78.94
2017-04-17T05:59:55.372Z,78.22
2017-04-17T06:02:13.186Z,78.31
2017-04-17T06:04:41.238Z,78.12
2017-04-17T06:05:29.786Z,77.93
2017-04-17T06:06:18.307Z,77.83
2017-04-17T06:07:02.472Z,78.41
2017-04-17T06:07:51.927Z,78.12
2017-04-17T06:08:38.751Z,78.03
2017-04-17T06:09:22.115Z,78.22
2017-04-17T06:10:02.679Z,77.93
2017-04-17T06:10:43.402Z,78.22
2017-04-17T06:11:25.137Z,77.93
2017-04-17T06:12:05.285Z,77.83
2017-04-17T06:12:45.727Z,78.03
2017-04-17T06:13:26.233Z,77.45
2017-04-17T06:14:06.903Z,77.64
2017-04-17T06:14:48.025Z,77.74
2017-04-17T06:15:28.485Z,76.59
2017-04-17T06:16:10.580Z,76.59
2017-04-17T06:16:52.927Z,77.36
2017-04-17T06:17:33.417Z,76.79
2017-04-17T06:18:16.393Z,77.45
2017-04-17T06:18:56.884Z,76.59
2017-04-17T06:19:37.379Z,76.59
2017-04-17T06:20:17.883Z,76.59
2017-04-17T06:20:58.351Z,76.59
2017-04-17T06:21:40.323Z,76.88
2017-04-17T06:22:21.274Z,76.59
2017-04-17T06:23:01.729Z,76.69
2017-04-17T06:23:42.243Z,76.59
2017-04-17T06:24:22.739Z,76.88
2017-04-17T06:25:03.263Z,76.98
2017-04-17T06:25:47.911Z,76.69
2017-04-17T06:26:28.451Z,76.5
2017-04-17T06:27:08.936Z,76.59
2017-04-17T06:27:50.804Z,76.4
2017-04-17T06:28:31.996Z,76.5
2017-04-17T06:29:12.512Z,76.79
2017-04-17T06:29:52.990Z,76.79
2017-04-17T06:30:36.429Z,76.79
2017-04-17T06:32:28.912Z,76.12
2017-04-17T06:33:18.378Z,76.54
2017-04-17T06:35:48.076Z,76.4
2017-04-17T06:37:38.913Z,76.69
2017-04-17T06:38:29.452Z,76.79
2017-04-17T06:39:19.609Z,76.59
2017-04-17T06:40:06.689Z,76.31
2017-04-17T06:40:54.390Z,76.5
2017-04-17T06:41:45.037Z,76.5
2017-04-17T06:42:35.306Z,76.69
2017-04-17T06:43:16.253Z,76.79
2017-04-17T06:43:58.839Z,76.59
2017-04-17T06:44:39.347Z,76.69
2017-04-17T06:45:22.619Z,76.64
2017-04-17T06:46:05.922Z,76.5
2017-04-17T06:46:46.633Z,76.06
2017-04-17T06:47:29.517Z,76.64
2017-04-17T06:48:10.032Z,76.06
2017-04-17T06:48:50.867Z,75.87
2017-04-17T06:49:31.521Z,76.54
2017-04-17T06:50:11.965Z,75.96
2017-04-17T06:50:54.172Z,75.49
2017-04-17T06:51:34.626Z,75.87
2017-04-17T06:52:15.199Z,75.87
2017-04-17T06:54:31.765Z,76.54
2017-04-17T06:55:18.030Z,75.87
2017-04-17T06:56:05.122Z,75.87
2017-04-17T06:56:47.294Z,75.87
2017-04-17T06:57:28.932Z,76.16
2017-04-17T06:59:46.308Z,75.49
2017-04-17T07:00:32.722Z,75.59
2017-04-17T07:01:17.504Z,76.06
2017-04-17T07:01:57.437Z,75.11
2017-04-17T07:02:37.941Z,75.01
2017-04-17T07:03:18.421Z,74.82
2017-04-17T07:04:00.343Z,75.24
2017-04-17T07:04:40.857Z,74.67
2017-04-17T07:05:22.113Z,74.48
2017-04-17T07:07:42.144Z,74.01
2017-04-17T07:09:39.512Z,72.86
2017-04-17T07:10:23.550Z,73.14
2017-04-17T07:11:06.435Z,73.33
2017-04-17T07:11:46.927Z,73.43
2017-04-17T07:12:28.098Z,73.62
2017-04-17T07:13:09.521Z,73.24
2017-04-17T07:13:50.963Z,74.01
2017-04-17T07:14:31.417Z,74.29
2017-04-17T07:15:11.958Z,74.01
2017-04-17T07:15:52.436Z,73.43
2017-04-17T07:16:32.878Z,74.01
2017-04-17T07:17:13.408Z,73.43
2017-04-17T07:17:53.889Z,74.01
2017-04-17T07:18:34.331Z,73.33
2017-04-17T07:19:15.817Z,73.52
2017-04-17T07:19:56.666Z,73.05
2017-04-17T07:20:39.123Z,73.62
2017-04-17T07:21:18.286Z,73.24
2017-04-17T07:21:58.784Z,73.33
2017-04-17T07:22:39.181Z,73.43
2017-04-17T07:25:07.190Z,73.43
2017-04-17T07:25:54.372Z,72.67
2017-04-17T07:26:41.461Z,72.67
2017-04-17T07:27:23.639Z,72.96
2017-04-17T07:28:04.114Z,73.05
2017-04-17T07:28:46.755Z,73.72
2017-04-17T07:30:38.125Z,72.86
2017-04-17T07:31:20.762Z,73.43
2017-04-17T07:35:13.626Z,72.32
2017-04-17T07:35:56.799Z,72.23
2017-04-17T07:36:37.308Z,72.03
2017-04-17T07:37:17.875Z,72.03
2017-04-17T07:37:58.328Z,71.18
2017-04-17T07:38:38.861Z,70.98
2017-04-17T07:39:19.528Z,71.66
2017-04-17T07:40:00.090Z,72.03
2017-04-17T07:40:43.428Z,71.84
2017-04-17T07:41:24.750Z,71.18
2017-04-17T07:42:06.819Z,71.27
2017-04-17T07:42:47.349Z,71.94
2017-04-17T07:43:27.912Z,71.84
2017-04-17T07:44:08.592Z,72.03
2017-04-17T07:44:50.739Z,71.84
2017-04-17T07:45:31.559Z,72.51
2017-04-17T07:46:12.053Z,72.42
2017-04-17T07:46:52.515Z,71.94
2017-04-17T07:47:33.011Z,72.03
2017-04-17T07:48:16.360Z,71.75
2017-04-17T07:48:57.704Z,72.61
2017-04-17T07:49:38.321Z,72.51
2017-04-17T07:50:18.862Z,72.51
2017-04-17T07:51:00.198Z,72.42
2017-04-17T07:51:41.648Z,72.51
2017-04-17T07:52:22.128Z,71.84
2017-04-17T07:53:02.610Z,72.42
2017-04-17T07:53:46.283Z,72.71
2017-04-17T07:54:28.048Z,72.71
2017-04-17T07:55:08.593Z,72.61
2017-04-17T07:57:32.206Z,72.42
2017-04-17T07:58:15.992Z,72.32
2017-04-17T07:58:56.070Z,71.75
2017-04-17T07:59:37.285Z,72.32
2017-04-17T08:00:17.739Z,72.23
2017-04-17T08:00:58.337Z,72.38
2017-04-17T08:01:44.376Z,72.42
2017-04-17T08:02:24.948Z,72.38
2017-04-17T08:03:05.508Z,72.28
2017-04-17T08:03:46.739Z,72.86
2017-04-17T08:04:27.411Z,72.57
2017-04-17T08:05:07.820Z,72.19
2017-04-17T08:05:52.036Z,72.67
2017-04-17T08:07:45.288Z,72.67
2017-04-17T08:08:31.607Z,72.57
2017-04-17T08:09:12.654Z,72.76
2017-04-17T08:09:53.143Z,72.67
2017-04-17T08:10:33.877Z,72.96
2017-04-17T08:11:16.425Z,72.67
2017-04-17T08:11:56.920Z,73.43
2017-04-17T08:12:37.529Z,73.14
2017-04-17T08:15:08.430Z,73.52
2017-04-17T08:16:07.928Z,73.43
2017-04-17T08:16:50.570Z,74.1
2017-04-17T08:17:31.278Z,74.01
2017-04-17T08:18:12.844Z,74.1
2017-04-17T08:20:01.368Z,74.1
2017-04-17T08:20:44.114Z,73.72
2017-04-17T08:21:25.345Z,72.86
2017-04-17T08:22:06.752Z,73.52
2017-04-17T08:22:47.248Z,73.62
2017-04-17T08:23:27.705Z,73.52
2017-04-17T08:24:08.664Z,72.86
2017-04-17T08:24:49.249Z,73.81
2017-04-17T08:25:29.756Z,73.72
2017-04-17T08:26:10.176Z,73.52
2017-04-17T08:26:50.704Z,72.96
2017-04-17T08:27:31.608Z,72.67
2017-04-17T08:28:13.111Z,73.43
2017-04-17T08:28:53.636Z,73.05
2017-04-17T08:29:34.114Z,73.24
2017-04-17T08:30:14.624Z,72.86
2017-04-17T08:30:55.085Z,72.96
2017-04-17T08:31:35.596Z,73.43
2017-04-17T08:32:16.054Z,73.14
2017-04-17T08:32:57.311Z,73.14
2017-04-17T08:33:38.871Z,73.43
2017-04-17T08:34:19.419Z,72.38
2017-04-17T08:35:00.350Z,72.67
2017-04-17T08:35:40.855Z,73.43
2017-04-17T08:36:21.320Z,72.86
2017-04-17T08:38:23.595Z,72.67
2017-04-17T08:39:04.139Z,72.57
2017-04-17T08:39:44.978Z,72.76
2017-04-17T08:40:25.602Z,72.48
2017-04-17T08:41:06.068Z,72.48
2017-04-17T08:41:47.616Z,72.32
2017-04-17T08:42:30.278Z,72.32
2017-04-17T08:43:10.801Z,71.84
2017-04-17T08:43:51.309Z,71.75
2017-04-17T08:44:32.342Z,72.03
2017-04-17T08:45:13.588Z,72.03
2017-04-17T08:47:16.049Z,71.94
2017-04-17T08:47:56.599Z,72.23
2017-04-17T08:48:39.078Z,71.37
2017-04-17T08:49:19.128Z,70.98
2017-04-17T08:49:59.614Z,70.98
2017-04-17T08:50:40.399Z,70.61
2017-04-17T08:51:20.934Z,70.98
2017-04-17T08:52:01.352Z,70.61
2017-04-17T08:52:41.822Z,70.42
2017-04-17T08:53:24.880Z,70.13
2017-04-17T08:54:06.236Z,70.32
2017-04-17T08:54:46.723Z,70.42
2017-04-17T08:55:30.693Z,70.42
2017-04-17T08:57:20.459Z,69.4
2017-04-17T08:58:00.794Z,69.31
2017-04-17T08:58:41.316Z,69.49
2017-04-17T08:59:21.792Z,69.02
2017-04-17T09:00:02.286Z,68.92
2017-04-17T09:00:43.488Z,68.88
2017-04-17T09:01:24.328Z,68.88
2017-04-17T09:02:04.831Z,69.08
2017-04-17T09:02:45.341Z,69.27
2017-04-17T09:03:26.195Z,69.08
2017-04-17T09:04:06.679Z,69.27
2017-04-17T09:04:47.359Z,69.56
2017-04-17T09:05:29.614Z,70.03
2017-04-17T09:06:09.631Z,69.84
2017-04-17T09:06:50.278Z,70.13
2017-04-17T09:07:33.756Z,69.56
2017-04-17T09:08:14.328Z,69.56
2017-04-17T09:08:55.136Z,69.56
2017-04-17T09:09:35.654Z,70.03
2017-04-17T09:10:16.230Z,69.74
2017-04-17T09:10:56.669Z,69.74
2017-04-17T09:11:37.159Z,70.03
2017-04-17T09:12:17.661Z,69.93
2017-04-17T09:12:58.172Z,70.51
2017-04-17T09:13:38.663Z,70.13
2017-04-17T09:14:19.165Z,70.61
2017-04-17T09:14:59.656Z,69.74
2017-04-17T09:15:40.149Z,69.74
2017-04-17T09:16:20.627Z,70.61
2017-04-17T09:17:01.105Z,70.42
2017-04-17T09:17:41.627Z,69.84
2017-04-17T09:18:22.079Z,70.42
2017-04-17T09:19:02.572Z,70.42
2017-04-17T09:19:43.096Z,69.84
2017-04-17T09:20:23.659Z,70.03
2017-04-17T09:21:04.114Z,69.37
2017-04-17T09:21:44.613Z,69.37
2017-04-17T09:22:25.114Z,69.37
2017-04-17T09:23:05.614Z,69.74
2017-04-17T09:23:46.048Z,70.13
2017-04-17T09:24:26.550Z,70.03
2017-04-17T09:25:07.013Z,69.87
2017-04-17T09:25:47.529Z,70.13
2017-04-17T09:26:28.077Z,70.7
2017-04-17T09:27:08.490Z,71.37
2017-04-17T09:27:48.966Z,71.94
2017-04-17T09:28:29.455Z,72.61
2017-04-17T09:29:10.038Z,72.42
2017-04-17T09:29:50.523Z,72.51
2017-04-17T09:30:31.042Z,72.51
2017-04-17T09:31:12.172Z,72.51
2017-04-17T09:31:52.575Z,72.71
2017-04-17T09:32:33.075Z,72.8
2017-04-17T09:33:13.577Z,72.71
2017-04-17T09:33:54.075Z,73.08
2017-04-17T09:34:34.493Z,73.47
2017-04-17T09:35:14.987Z,73.28
2017-04-17T09:35:55.510Z,72.8
2017-04-17T09:36:35.992Z,72.64
2017-04-17T09:37:16.465Z,72.61
2017-04-17T09:37:56.971Z,72.51
2017-04-17T09:38:37.469Z,72.8